sensor_id;sensor_type;location;lat;lon;timestamp;P1;durP1;ratioP1;P2;durP2;ratioP2
22922;SDS011;11627;51.322;22.816;2024-02-14T00:00:07;5.07;;;2.00;;
22922;SDS011;11627;51.322;22.816;2024-02-14T00:02:47;3.78;;;1.60;;
22922;SDS011;11627;51.322;22.816;2024-02-14T00:05:16;5.72;;;1.92;;
22922;SDS011;11627;51.322;22.816;2024-02-14T00:07:45;6.03;;;1.75;;
22922;SDS011;11627;51.322;22.816;2024-02-14T00:10:12;4.38;;;1.63;;
22922;SDS011;11627;51.322;22.816;2024-02-14T00:12:37;7.82;;;1.70;;
22922;SDS011;11627;51.322;22.816;2024-02-14T00:15:05;4.68;;;1.83;;
22922;SDS011;11627;51.322;22.816;2024-02-14T00:17:33;2.85;;;1.65;;
22922;SDS011;11627;51.322;22.816;2024-02-14T00:20:04;4.38;;;1.70;;
22922;SDS011;11627;51.322;22.816;2024-02-14T00:22:32;3.08;;;1.50;;
22922;SDS011;11627;51.322;22.816;2024-02-14T00:24:59;6.20;;;1.75;;
22922;SDS011;11627;51.322;22.816;2024-02-14T00:27:26;5.65;;;2.00;;
22922;SDS011;11627;51.322;22.816;2024-02-14T00:29:52;4.53;;;1.95;;
22922;SDS011;11627;51.322;22.816;2024-02-14T00:32:20;5.38;;;1.73;;
22922;SDS011;11627;51.322;22.816;2024-02-14T00:34:46;4.55;;;1.77;;
22922;SDS011;11627;51.322;22.816;2024-02-14T00:37:13;4.90;;;2.17;;
22922;SDS011;11627;51.322;22.816;2024-02-14T00:39:39;3.50;;;1.90;;
22922;SDS011;11627;51.322;22.816;2024-02-14T00:42:06;4.32;;;1.60;;
22922;SDS011;11627;51.322;22.816;2024-02-14T00:44:32;4.88;;;2.03;;
22922;SDS011;11627;51.322;22.816;2024-02-14T00:46:58;5.38;;;1.80;;
22922;SDS011;11627;51.322;22.816;2024-02-14T00:49:26;5.47;;;1.70;;
22922;SDS011;11627;51.322;22.816;2024-02-14T00:51:53;4.13;;;2.17;;
22922;SDS011;11627;51.322;22.816;2024-02-14T00:54:21;5.03;;;1.75;;
22922;SDS011;11627;51.322;22.816;2024-02-14T00:56:48;5.28;;;2.20;;
22922;SDS011;11627;51.322;22.816;2024-02-14T00:59:15;6.45;;;2.05;;
22922;SDS011;11627;51.322;22.816;2024-02-14T01:01:42;4.70;;;1.85;;
22922;SDS011;11627;51.322;22.816;2024-02-14T01:04:07;6.13;;;2.22;;
22922;SDS011;11627;51.322;22.816;2024-02-14T01:06:35;7.03;;;2.58;;
22922;SDS011;11627;51.322;22.816;2024-02-14T01:09:01;6.40;;;2.42;;
22922;SDS011;11627;51.322;22.816;2024-02-14T01:11:29;6.93;;;2.92;;
22922;SDS011;11627;51.322;22.816;2024-02-14T01:13:56;8.82;;;3.60;;
22922;SDS011;11627;51.322;22.816;2024-02-14T01:16:24;11.35;;;3.13;;
22922;SDS011;11627;51.322;22.816;2024-02-14T01:18:52;6.10;;;2.97;;
22922;SDS011;11627;51.322;22.816;2024-02-14T01:21:18;8.60;;;3.00;;
22922;SDS011;11627;51.322;22.816;2024-02-14T01:23:44;7.05;;;2.83;;
22922;SDS011;11627;51.322;22.816;2024-02-14T01:26:12;12.68;;;3.58;;
22922;SDS011;11627;51.322;22.816;2024-02-14T01:28:38;8.48;;;3.30;;
22922;SDS011;11627;51.322;22.816;2024-02-14T01:31:05;9.55;;;3.70;;
22922;SDS011;11627;51.322;22.816;2024-02-14T01:33:32;7.53;;;3.65;;
22922;SDS011;11627;51.322;22.816;2024-02-14T01:35:58;13.07;;;3.80;;
22922;SDS011;11627;51.322;22.816;2024-02-14T01:38:24;9.70;;;3.58;;
22922;SDS011;11627;51.322;22.816;2024-02-14T01:40:51;7.72;;;3.45;;
22922;SDS011;11627;51.322;22.816;2024-02-14T01:43:19;9.30;;;3.60;;
22922;SDS011;11627;51.322;22.816;2024-02-14T01:45:48;11.52;;;3.97;;
22922;SDS011;11627;51.322;22.816;2024-02-14T01:48:13;11.15;;;4.47;;
22922;SDS011;11627;51.322;22.816;2024-02-14T01:50:43;10.38;;;4.13;;
22922;SDS011;11627;51.322;22.816;2024-02-14T01:53:10;9.65;;;4.00;;
22922;SDS011;11627;51.322;22.816;2024-02-14T01:55:39;12.10;;;4.10;;
22922;SDS011;11627;51.322;22.816;2024-02-14T01:58:07;8.90;;;4.45;;
22922;SDS011;11627;51.322;22.816;2024-02-14T02:00:34;13.02;;;4.38;;
22922;SDS011;11627;51.322;22.816;2024-02-14T02:03:05;10.30;;;4.32;;
22922;SDS011;11627;51.322;22.816;2024-02-14T02:05:32;11.20;;;4.13;;
22922;SDS011;11627;51.322;22.816;2024-02-14T02:07:59;11.05;;;4.03;;
22922;SDS011;11627;51.322;22.816;2024-02-14T02:10:27;15.30;;;4.38;;
22922;SDS011;11627;51.322;22.816;2024-02-14T02:13:00;10.98;;;4.10;;
22922;SDS011;11627;51.322;22.816;2024-02-14T02:15:27;12.55;;;3.90;;
22922;SDS011;11627;51.322;22.816;2024-02-14T02:17:55;9.55;;;4.05;;
22922;SDS011;11627;51.322;22.816;2024-02-14T02:20:23;11.10;;;4.22;;
22922;SDS011;11627;51.322;22.816;2024-02-14T02:22:49;7.68;;;4.20;;
22922;SDS011;11627;51.322;22.816;2024-02-14T02:25:15;9.32;;;4.10;;
22922;SDS011;11627;51.322;22.816;2024-02-14T02:27:42;10.90;;;4.63;;
22922;SDS011;11627;51.322;22.816;2024-02-14T02:30:08;9.30;;;4.32;;
22922;SDS011;11627;51.322;22.816;2024-02-14T02:32:36;9.73;;;5.05;;
22922;SDS011;11627;51.322;22.816;2024-02-14T02:35:02;10.95;;;4.93;;
22922;SDS011;11627;51.322;22.816;2024-02-14T02:37:31;11.55;;;4.80;;
22922;SDS011;11627;51.322;22.816;2024-02-14T02:39:59;11.60;;;4.65;;
22922;SDS011;11627;51.322;22.816;2024-02-14T02:42:27;10.63;;;5.00;;
22922;SDS011;11627;51.322;22.816;2024-02-14T02:44:56;13.10;;;5.05;;
22922;SDS011;11627;51.322;22.816;2024-02-14T02:47:22;12.35;;;5.32;;
22922;SDS011;11627;51.322;22.816;2024-02-14T02:49:49;11.30;;;5.40;;
22922;SDS011;11627;51.322;22.816;2024-02-14T02:52:18;11.07;;;5.10;;
22922;SDS011;11627;51.322;22.816;2024-02-14T02:54:45;10.75;;;4.95;;
22922;SDS011;11627;51.322;22.816;2024-02-14T02:57:13;16.50;;;5.88;;
22922;SDS011;11627;51.322;22.816;2024-02-14T02:59:41;14.63;;;5.38;;
22922;SDS011;11627;51.322;22.816;2024-02-14T03:02:10;16.80;;;5.82;;
22922;SDS011;11627;51.322;22.816;2024-02-14T03:04:38;17.48;;;6.07;;
22922;SDS011;11627;51.322;22.816;2024-02-14T03:07:04;12.57;;;5.38;;
22922;SDS011;11627;51.322;22.816;2024-02-14T03:09:33;10.02;;;5.05;;
22922;SDS011;11627;51.322;22.816;2024-02-14T03:12:00;13.93;;;5.65;;
22922;SDS011;11627;51.322;22.816;2024-02-14T03:14:31;10.38;;;5.40;;
22922;SDS011;11627;51.322;22.816;2024-02-14T03:17:02;12.32;;;5.57;;
22922;SDS011;11627;51.322;22.816;2024-02-14T03:19:28;17.33;;;5.55;;
22922;SDS011;11627;51.322;22.816;2024-02-14T03:21:55;10.45;;;5.38;;
22922;SDS011;11627;51.322;22.816;2024-02-14T03:24:21;11.00;;;5.60;;
22922;SDS011;11627;51.322;22.816;2024-02-14T03:26:53;15.10;;;5.47;;
22922;SDS011;11627;51.322;22.816;2024-02-14T03:29:20;14.88;;;5.88;;
22922;SDS011;11627;51.322;22.816;2024-02-14T03:31:48;10.77;;;5.45;;
22922;SDS011;11627;51.322;22.816;2024-02-14T03:34:15;13.80;;;6.38;;
22922;SDS011;11627;51.322;22.816;2024-02-14T03:36:41;14.75;;;6.00;;
22922;SDS011;11627;51.322;22.816;2024-02-14T03:39:09;13.43;;;5.90;;
22922;SDS011;11627;51.322;22.816;2024-02-14T03:41:37;13.00;;;6.07;;
22922;SDS011;11627;51.322;22.816;2024-02-14T03:44:03;13.23;;;5.25;;
22922;SDS011;11627;51.322;22.816;2024-02-14T03:46:30;17.33;;;5.75;;
22922;SDS011;11627;51.322;22.816;2024-02-14T03:48:56;10.88;;;5.30;;
22922;SDS011;11627;51.322;22.816;2024-02-14T03:51:26;10.60;;;5.00;;
22922;SDS011;11627;51.322;22.816;2024-02-14T03:53:53;13.05;;;5.60;;
22922;SDS011;11627;51.322;22.816;2024-02-14T03:56:19;13.57;;;5.93;;
22922;SDS011;11627;51.322;22.816;2024-02-14T03:58:46;14.13;;;5.13;;
22922;SDS011;11627;51.322;22.816;2024-02-14T04:01:12;14.82;;;5.50;;
22922;SDS011;11627;51.322;22.816;2024-02-14T04:03:39;11.10;;;5.70;;
22922;SDS011;11627;51.322;22.816;2024-02-14T04:06:05;13.93;;;5.35;;
22922;SDS011;11627;51.322;22.816;2024-02-14T04:08:33;13.55;;;5.35;;
22922;SDS011;11627;51.322;22.816;2024-02-14T04:11:00;13.85;;;5.53;;
22922;SDS011;11627;51.322;22.816;2024-02-14T04:13:26;13.32;;;5.95;;
22922;SDS011;11627;51.322;22.816;2024-02-14T04:15:52;13.82;;;6.05;;
22922;SDS011;11627;51.322;22.816;2024-02-14T04:18:18;13.07;;;5.65;;
22922;SDS011;11627;51.322;22.816;2024-02-14T04:20:44;15.68;;;5.50;;
22922;SDS011;11627;51.322;22.816;2024-02-14T04:23:11;11.70;;;5.22;;
22922;SDS011;11627;51.322;22.816;2024-02-14T04:25:39;11.93;;;5.53;;
22922;SDS011;11627;51.322;22.816;2024-02-14T04:28:05;12.45;;;5.55;;
22922;SDS011;11627;51.322;22.816;2024-02-14T04:30:33;13.05;;;5.60;;
22922;SDS011;11627;51.322;22.816;2024-02-14T04:33:01;10.23;;;4.93;;
22922;SDS011;11627;51.322;22.816;2024-02-14T04:35:27;12.02;;;5.38;;
22922;SDS011;11627;51.322;22.816;2024-02-14T04:37:55;11.55;;;4.88;;
22922;SDS011;11627;51.322;22.816;2024-02-14T04:40:23;11.82;;;5.28;;
22922;SDS011;11627;51.322;22.816;2024-02-14T04:42:50;12.73;;;5.60;;
22922;SDS011;11627;51.322;22.816;2024-02-14T04:45:17;14.23;;;5.65;;
22922;SDS011;11627;51.322;22.816;2024-02-14T04:47:45;10.88;;;5.10;;
22922;SDS011;11627;51.322;22.816;2024-02-14T04:50:11;12.48;;;5.70;;
22922;SDS011;11627;51.322;22.816;2024-02-14T04:52:36;13.65;;;6.25;;
22922;SDS011;11627;51.322;22.816;2024-02-14T04:55:06;11.40;;;5.82;;
22922;SDS011;11627;51.322;22.816;2024-02-14T04:57:34;12.88;;;6.10;;
22922;SDS011;11627;51.322;22.816;2024-02-14T05:00:04;14.55;;;6.53;;
22922;SDS011;11627;51.322;22.816;2024-02-14T05:02:31;13.27;;;6.28;;
22922;SDS011;11627;51.322;22.816;2024-02-14T05:04:56;11.35;;;6.03;;
22922;SDS011;11627;51.322;22.816;2024-02-14T05:07:23;16.00;;;6.18;;
22922;SDS011;11627;51.322;22.816;2024-02-14T05:09:50;20.88;;;7.07;;
22922;SDS011;11627;51.322;22.816;2024-02-14T05:12:17;15.45;;;6.45;;
22922;SDS011;11627;51.322;22.816;2024-02-14T05:14:46;16.30;;;6.28;;
22922;SDS011;11627;51.322;22.816;2024-02-14T05:17:14;14.52;;;7.20;;
22922;SDS011;11627;51.322;22.816;2024-02-14T05:19:41;13.23;;;6.40;;
22922;SDS011;11627;51.322;22.816;2024-02-14T05:22:08;17.40;;;6.57;;
22922;SDS011;11627;51.322;22.816;2024-02-14T05:24:37;12.88;;;6.25;;
22922;SDS011;11627;51.322;22.816;2024-02-14T05:27:04;17.35;;;7.03;;
22922;SDS011;11627;51.322;22.816;2024-02-14T05:29:32;16.33;;;6.72;;
22922;SDS011;11627;51.322;22.816;2024-02-14T05:31:58;16.10;;;7.07;;
22922;SDS011;11627;51.322;22.816;2024-02-14T05:34:25;18.33;;;7.35;;
22922;SDS011;11627;51.322;22.816;2024-02-14T05:36:52;17.85;;;6.82;;
22922;SDS011;11627;51.322;22.816;2024-02-14T05:39:18;15.05;;;7.47;;
22922;SDS011;11627;51.322;22.816;2024-02-14T05:41:45;15.32;;;7.15;;
22922;SDS011;11627;51.322;22.816;2024-02-14T05:44:11;18.55;;;6.93;;
22922;SDS011;11627;51.322;22.816;2024-02-14T05:46:38;12.98;;;6.45;;
22922;SDS011;11627;51.322;22.816;2024-02-14T05:49:05;14.02;;;6.90;;
22922;SDS011;11627;51.322;22.816;2024-02-14T05:51:31;12.57;;;6.63;;
22922;SDS011;11627;51.322;22.816;2024-02-14T05:53:57;13.13;;;6.50;;
22922;SDS011;11627;51.322;22.816;2024-02-14T05:56:25;15.93;;;6.88;;
22922;SDS011;11627;51.322;22.816;2024-02-14T05:58:52;17.15;;;7.22;;
22922;SDS011;11627;51.322;22.816;2024-02-14T06:01:18;17.88;;;7.18;;
22922;SDS011;11627;51.322;22.816;2024-02-14T06:03:46;16.60;;;6.60;;
22922;SDS011;11627;51.322;22.816;2024-02-14T06:06:12;18.58;;;6.90;;
22922;SDS011;11627;51.322;22.816;2024-02-14T06:08:39;17.67;;;7.20;;
22922;SDS011;11627;51.322;22.816;2024-02-14T06:11:05;16.52;;;6.65;;
22922;SDS011;11627;51.322;22.816;2024-02-14T06:13:33;14.82;;;7.13;;
22922;SDS011;11627;51.322;22.816;2024-02-14T06:16:01;19.25;;;7.07;;
22922;SDS011;11627;51.322;22.816;2024-02-14T06:18:27;13.85;;;6.80;;
22922;SDS011;11627;51.322;22.816;2024-02-14T06:20:53;17.75;;;7.05;;
22922;SDS011;11627;51.322;22.816;2024-02-14T06:23:20;13.82;;;6.78;;
22922;SDS011;11627;51.322;22.816;2024-02-14T06:25:46;13.77;;;6.63;;
22922;SDS011;11627;51.322;22.816;2024-02-14T06:28:12;14.63;;;6.65;;
22922;SDS011;11627;51.322;22.816;2024-02-14T06:30:39;17.70;;;7.05;;
22922;SDS011;11627;51.322;22.816;2024-02-14T06:33:05;16.05;;;7.30;;
22922;SDS011;11627;51.322;22.816;2024-02-14T06:35:31;15.65;;;6.50;;
22922;SDS011;11627;51.322;22.816;2024-02-14T06:37:57;22.77;;;8.23;;
22922;SDS011;11627;51.322;22.816;2024-02-14T06:40:23;21.17;;;8.95;;
22922;SDS011;11627;51.322;22.816;2024-02-14T06:42:52;21.30;;;8.70;;
22922;SDS011;11627;51.322;22.816;2024-02-14T06:45:20;20.05;;;8.35;;
22922;SDS011;11627;51.322;22.816;2024-02-14T06:47:46;20.58;;;8.05;;
22922;SDS011;11627;51.322;22.816;2024-02-14T06:50:12;18.77;;;7.35;;
22922;SDS011;11627;51.322;22.816;2024-02-14T06:52:41;18.55;;;7.50;;
22922;SDS011;11627;51.322;22.816;2024-02-14T06:55:07;15.60;;;7.32;;
22922;SDS011;11627;51.322;22.816;2024-02-14T06:57:33;15.98;;;7.43;;
22922;SDS011;11627;51.322;22.816;2024-02-14T07:00:01;19.85;;;7.70;;
22922;SDS011;11627;51.322;22.816;2024-02-14T07:02:31;20.85;;;8.48;;
22922;SDS011;11627;51.322;22.816;2024-02-14T07:04:58;17.55;;;8.00;;
22922;SDS011;11627;51.322;22.816;2024-02-14T07:07:24;20.10;;;8.35;;
22922;SDS011;11627;51.322;22.816;2024-02-14T07:09:52;16.98;;;8.65;;
22922;SDS011;11627;51.322;22.816;2024-02-14T07:12:19;16.52;;;8.30;;
22922;SDS011;11627;51.322;22.816;2024-02-14T07:14:46;17.40;;;8.07;;
22922;SDS011;11627;51.322;22.816;2024-02-14T07:17:13;18.73;;;8.70;;
22922;SDS011;11627;51.322;22.816;2024-02-14T07:19:41;21.58;;;9.07;;
22922;SDS011;11627;51.322;22.816;2024-02-14T07:22:13;15.70;;;7.65;;
22922;SDS011;11627;51.322;22.816;2024-02-14T07:24:47;26.48;;;9.13;;
22922;SDS011;11627;51.322;22.816;2024-02-14T07:27:14;21.58;;;8.48;;
22922;SDS011;11627;51.322;22.816;2024-02-14T07:29:41;20.17;;;8.13;;
22922;SDS011;11627;51.322;22.816;2024-02-14T07:32:08;21.70;;;8.45;;
22922;SDS011;11627;51.322;22.816;2024-02-14T07:34:37;19.83;;;8.18;;
22922;SDS011;11627;51.322;22.816;2024-02-14T07:37:05;19.70;;;7.75;;
22922;SDS011;11627;51.322;22.816;2024-02-14T07:39:31;12.55;;;7.30;;
22922;SDS011;11627;51.322;22.816;2024-02-14T07:41:57;18.60;;;8.45;;
22922;SDS011;11627;51.322;22.816;2024-02-14T07:44:24;23.23;;;8.90;;
22922;SDS011;11627;51.322;22.816;2024-02-14T07:46:51;14.40;;;7.70;;
22922;SDS011;11627;51.322;22.816;2024-02-14T07:49:19;22.58;;;8.68;;
22922;SDS011;11627;51.322;22.816;2024-02-14T07:51:47;17.27;;;7.95;;
22922;SDS011;11627;51.322;22.816;2024-02-14T07:54:14;18.17;;;8.23;;
22922;SDS011;11627;51.322;22.816;2024-02-14T07:56:43;16.25;;;7.97;;
22922;SDS011;11627;51.322;22.816;2024-02-14T07:59:10;15.57;;;7.05;;
22922;SDS011;11627;51.322;22.816;2024-02-14T08:01:38;16.23;;;7.93;;
22922;SDS011;11627;51.322;22.816;2024-02-14T08:04:08;16.77;;;8.07;;
22922;SDS011;11627;51.322;22.816;2024-02-14T08:06:34;21.83;;;8.32;;
22922;SDS011;11627;51.322;22.816;2024-02-14T08:09:00;22.13;;;8.32;;
22922;SDS011;11627;51.322;22.816;2024-02-14T08:11:31;16.00;;;7.75;;
22922;SDS011;11627;51.322;22.816;2024-02-14T08:13:57;20.85;;;7.70;;
22922;SDS011;11627;51.322;22.816;2024-02-14T08:16:25;16.25;;;7.30;;
22922;SDS011;11627;51.322;22.816;2024-02-14T08:18:51;16.35;;;7.03;;
22922;SDS011;11627;51.322;22.816;2024-02-14T08:21:26;15.60;;;7.03;;
22922;SDS011;11627;51.322;22.816;2024-02-14T08:23:54;16.13;;;6.80;;
22922;SDS011;11627;51.322;22.816;2024-02-14T08:26:28;15.80;;;7.45;;
22922;SDS011;11627;51.322;22.816;2024-02-14T08:28:55;13.88;;;6.82;;
22922;SDS011;11627;51.322;22.816;2024-02-14T08:31:23;12.65;;;6.63;;
22922;SDS011;11627;51.322;22.816;2024-02-14T08:33:50;18.00;;;7.47;;
22922;SDS011;11627;51.322;22.816;2024-02-14T08:36:20;16.52;;;7.07;;
22922;SDS011;11627;51.322;22.816;2024-02-14T08:38:47;18.17;;;7.40;;
22922;SDS011;11627;51.322;22.816;2024-02-14T08:41:14;15.50;;;6.35;;
22922;SDS011;11627;51.322;22.816;2024-02-14T08:43:40;17.27;;;7.18;;
22922;SDS011;11627;51.322;22.816;2024-02-14T08:46:09;14.52;;;6.03;;
22922;SDS011;11627;51.322;22.816;2024-02-14T08:48:36;16.75;;;5.35;;
22922;SDS011;11627;51.322;22.816;2024-02-14T08:51:09;15.88;;;5.65;;
22922;SDS011;11627;51.322;22.816;2024-02-14T08:53:36;14.07;;;6.22;;
22922;SDS011;11627;51.322;22.816;2024-02-14T08:56:04;11.35;;;4.65;;
22922;SDS011;11627;51.322;22.816;2024-02-14T08:58:30;10.02;;;4.50;;
22922;SDS011;11627;51.322;22.816;2024-02-14T09:00:57;12.75;;;5.07;;
22922;SDS011;11627;51.322;22.816;2024-02-14T09:03:23;10.82;;;4.68;;
22922;SDS011;11627;51.322;22.816;2024-02-14T09:05:50;12.80;;;3.92;;
22922;SDS011;11627;51.322;22.816;2024-02-14T09:08:18;11.95;;;4.25;;
22922;SDS011;11627;51.322;22.816;2024-02-14T09:10:45;11.63;;;4.03;;
22922;SDS011;11627;51.322;22.816;2024-02-14T09:13:13;10.18;;;3.75;;
22922;SDS011;11627;51.322;22.816;2024-02-14T09:15:41;8.35;;;3.33;;
22922;SDS011;11627;51.322;22.816;2024-02-14T09:18:08;8.75;;;3.33;;
22922;SDS011;11627;51.322;22.816;2024-02-14T09:20:37;6.03;;;3.33;;
22922;SDS011;11627;51.322;22.816;2024-02-14T09:23:05;7.80;;;3.10;;
22922;SDS011;11627;51.322;22.816;2024-02-14T09:25:32;13.00;;;5.15;;
22922;SDS011;11627;51.322;22.816;2024-02-14T09:27:58;13.18;;;4.60;;
22922;SDS011;11627;51.322;22.816;2024-02-14T09:30:25;8.73;;;3.45;;
22922;SDS011;11627;51.322;22.816;2024-02-14T09:32:51;6.45;;;3.40;;
22922;SDS011;11627;51.322;22.816;2024-02-14T09:35:17;9.63;;;2.95;;
22922;SDS011;11627;51.322;22.816;2024-02-14T09:37:44;12.48;;;3.60;;
22922;SDS011;11627;51.322;22.816;2024-02-14T09:40:12;8.63;;;3.90;;
22922;SDS011;11627;51.322;22.816;2024-02-14T09:42:55;6.90;;;3.40;;
22922;SDS011;11627;51.322;22.816;2024-02-14T09:45:24;10.23;;;3.47;;
22922;SDS011;11627;51.322;22.816;2024-02-14T09:47:51;9.68;;;3.40;;
22922;SDS011;11627;51.322;22.816;2024-02-14T09:50:20;10.18;;;3.50;;
22922;SDS011;11627;51.322;22.816;2024-02-14T09:52:48;5.13;;;2.72;;
22922;SDS011;11627;51.322;22.816;2024-02-14T09:55:18;11.38;;;3.35;;
22922;SDS011;11627;51.322;22.816;2024-02-14T09:57:45;14.02;;;3.13;;
22922;SDS011;11627;51.322;22.816;2024-02-14T10:00:14;10.02;;;2.95;;
22922;SDS011;11627;51.322;22.816;2024-02-14T10:02:41;6.07;;;2.40;;
22922;SDS011;11627;51.322;22.816;2024-02-14T10:05:07;5.68;;;2.40;;
22922;SDS011;11627;51.322;22.816;2024-02-14T10:07:43;7.38;;;2.72;;
22922;SDS011;11627;51.322;22.816;2024-02-14T10:10:11;4.82;;;1.90;;
22922;SDS011;11627;51.322;22.816;2024-02-14T10:12:38;5.43;;;1.67;;
22922;SDS011;11627;51.322;22.816;2024-02-14T10:15:06;3.22;;;1.73;;
22922;SDS011;11627;51.322;22.816;2024-02-14T10:17:34;5.40;;;2.40;;
22922;SDS011;11627;51.322;22.816;2024-02-14T10:20:01;6.35;;;2.00;;
22922;SDS011;11627;51.322;22.816;2024-02-14T10:22:37;6.00;;;2.05;;
22922;SDS011;11627;51.322;22.816;2024-02-14T10:25:04;2.78;;;1.55;;
22922;SDS011;11627;51.322;22.816;2024-02-14T10:27:35;7.18;;;2.10;;
22922;SDS011;11627;51.322;22.816;2024-02-14T10:30:04;8.07;;;2.03;;
22922;SDS011;11627;51.322;22.816;2024-02-14T10:32:35;3.45;;;1.80;;
22922;SDS011;11627;51.322;22.816;2024-02-14T10:35:05;6.90;;;2.35;;
22922;SDS011;11627;51.322;22.816;2024-02-14T10:37:37;4.10;;;1.88;;
22922;SDS011;11627;51.322;22.816;2024-02-14T10:40:05;2.90;;;1.85;;
22922;SDS011;11627;51.322;22.816;2024-02-14T10:42:32;3.42;;;1.60;;
22922;SDS011;11627;51.322;22.816;2024-02-14T10:44:59;4.05;;;1.38;;
22922;SDS011;11627;51.322;22.816;2024-02-14T10:47:34;4.70;;;1.65;;
22922;SDS011;11627;51.322;22.816;2024-02-14T10:50:05;6.10;;;1.85;;
22922;SDS011;11627;51.322;22.816;2024-02-14T10:52:34;3.78;;;1.55;;
22922;SDS011;11627;51.322;22.816;2024-02-14T10:55:02;4.80;;;1.75;;
22922;SDS011;11627;51.322;22.816;2024-02-14T10:57:30;6.05;;;1.83;;
22922;SDS011;11627;51.322;22.816;2024-02-14T10:59:58;6.55;;;1.58;;
22922;SDS011;11627;51.322;22.816;2024-02-14T11:02:30;7.43;;;1.70;;
22922;SDS011;11627;51.322;22.816;2024-02-14T11:05:00;3.78;;;1.95;;
22922;SDS011;11627;51.322;22.816;2024-02-14T11:07:28;7.45;;;2.42;;
22922;SDS011;11627;51.322;22.816;2024-02-14T11:12:33;3.08;;;1.58;;
22922;SDS011;11627;51.322;22.816;2024-02-14T11:15:12;2.90;;;1.15;;
22922;SDS011;11627;51.322;22.816;2024-02-14T11:17:45;4.13;;;1.48;;
22922;SDS011;11627;51.322;22.816;2024-02-14T11:20:20;3.83;;;1.70;;
22922;SDS011;11627;51.322;22.816;2024-02-14T11:23:01;3.95;;;1.00;;
22922;SDS011;11627;51.322;22.816;2024-02-14T11:25:32;3.28;;;1.38;;
22922;SDS011;11627;51.322;22.816;2024-02-14T11:28:14;4.38;;;1.10;;
22922;SDS011;11627;51.322;22.816;2024-02-14T11:30:45;3.60;;;1.20;;
22922;SDS011;11627;51.322;22.816;2024-02-14T11:33:21;4.70;;;1.30;;
22922;SDS011;11627;51.322;22.816;2024-02-14T11:35:53;3.20;;;1.30;;
22922;SDS011;11627;51.322;22.816;2024-02-14T11:38:22;3.63;;;1.00;;
22922;SDS011;11627;51.322;22.816;2024-02-14T11:40:55;5.10;;;1.60;;
22922;SDS011;11627;51.322;22.816;2024-02-14T11:43:25;8.13;;;1.17;;
22922;SDS011;11627;51.322;22.816;2024-02-14T11:45:54;2.67;;;1.10;;
22922;SDS011;11627;51.322;22.816;2024-02-14T11:48:21;1.63;;;1.00;;
22922;SDS011;11627;51.322;22.816;2024-02-14T11:50:51;5.53;;;1.00;;
22922;SDS011;11627;51.322;22.816;2024-02-14T11:53:20;3.40;;;1.27;;
22922;SDS011;11627;51.322;22.816;2024-02-14T11:55:46;1.95;;;1.33;;
22922;SDS011;11627;51.322;22.816;2024-02-14T11:58:15;3.10;;;1.50;;
22922;SDS011;11627;51.322;22.816;2024-02-14T12:00:44;4.97;;;1.85;;
22922;SDS011;11627;51.322;22.816;2024-02-14T12:03:18;33.28;;;10.05;;
22922;SDS011;11627;51.322;22.816;2024-02-14T12:05:49;36.85;;;13.10;;
22922;SDS011;11627;51.322;22.816;2024-02-14T12:08:19;6.20;;;2.05;;
22922;SDS011;11627;51.322;22.816;2024-02-14T12:10:47;5.22;;;2.42;;
22922;SDS011;11627;51.322;22.816;2024-02-14T12:13:17;4.32;;;1.90;;
22922;SDS011;11627;51.322;22.816;2024-02-14T12:15:49;4.10;;;2.10;;
22922;SDS011;11627;51.322;22.816;2024-02-14T12:18:18;5.03;;;2.10;;
22922;SDS011;11627;51.322;22.816;2024-02-14T12:20:46;6.53;;;2.08;;
22922;SDS011;11627;51.322;22.816;2024-02-14T12:23:18;5.22;;;2.45;;
22922;SDS011;11627;51.322;22.816;2024-02-14T12:25:46;5.25;;;1.83;;
22922;SDS011;11627;51.322;22.816;2024-02-14T12:28:18;5.45;;;1.80;;
22922;SDS011;11627;51.322;22.816;2024-02-14T12:30:49;5.90;;;2.28;;
22922;SDS011;11627;51.322;22.816;2024-02-14T12:33:21;5.93;;;2.47;;
22922;SDS011;11627;51.322;22.816;2024-02-14T12:35:55;7.32;;;2.55;;
22922;SDS011;11627;51.322;22.816;2024-02-14T12:38:23;7.13;;;2.50;;
22922;SDS011;11627;51.322;22.816;2024-02-14T12:40:50;5.07;;;2.50;;
22922;SDS011;11627;51.322;22.816;2024-02-14T12:43:19;5.68;;;2.40;;
22922;SDS011;11627;51.322;22.816;2024-02-14T12:45:45;7.18;;;2.35;;
22922;SDS011;11627;51.322;22.816;2024-02-14T12:48:12;10.52;;;2.72;;
22922;SDS011;11627;51.322;22.816;2024-02-14T12:50:41;8.48;;;2.60;;
22922;SDS011;11627;51.322;22.816;2024-02-14T12:53:13;7.20;;;2.30;;
22922;SDS011;11627;51.322;22.816;2024-02-14T12:55:46;8.68;;;2.30;;
22922;SDS011;11627;51.322;22.816;2024-02-14T12:58:14;6.45;;;2.72;;
22922;SDS011;11627;51.322;22.816;2024-02-14T13:00:43;9.32;;;2.58;;
22922;SDS011;11627;51.322;22.816;2024-02-14T13:03:10;7.28;;;2.17;;
22922;SDS011;11627;51.322;22.816;2024-02-14T13:05:39;9.43;;;3.92;;
22922;SDS011;11627;51.322;22.816;2024-02-14T13:08:06;5.45;;;1.88;;
22922;SDS011;11627;51.322;22.816;2024-02-14T13:10:37;10.35;;;3.28;;
22922;SDS011;11627;51.322;22.816;2024-02-14T13:13:03;7.22;;;2.38;;
22922;SDS011;11627;51.322;22.816;2024-02-14T13:15:30;4.72;;;2.15;;
22922;SDS011;11627;51.322;22.816;2024-02-14T13:17:57;6.57;;;2.38;;
22922;SDS011;11627;51.322;22.816;2024-02-14T13:20:25;3.33;;;2.00;;
22922;SDS011;11627;51.322;22.816;2024-02-14T13:22:51;6.97;;;2.22;;
22922;SDS011;11627;51.322;22.816;2024-02-14T13:25:19;7.30;;;2.55;;
22922;SDS011;11627;51.322;22.816;2024-02-14T13:27:44;3.60;;;2.20;;
22922;SDS011;11627;51.322;22.816;2024-02-14T13:30:12;4.18;;;1.90;;
22922;SDS011;11627;51.322;22.816;2024-02-14T13:32:39;6.68;;;2.95;;
22922;SDS011;11627;51.322;22.816;2024-02-14T13:35:07;5.72;;;2.00;;
22922;SDS011;11627;51.322;22.816;2024-02-14T13:37:34;8.48;;;2.15;;
22922;SDS011;11627;51.322;22.816;2024-02-14T13:40:01;5.65;;;1.92;;
22922;SDS011;11627;51.322;22.816;2024-02-14T13:42:30;4.35;;;2.20;;
22922;SDS011;11627;51.322;22.816;2024-02-14T13:44:56;6.22;;;2.28;;
22922;SDS011;11627;51.322;22.816;2024-02-14T13:47:22;6.85;;;2.70;;
22922;SDS011;11627;51.322;22.816;2024-02-14T13:49:49;6.15;;;2.25;;
22922;SDS011;11627;51.322;22.816;2024-02-14T13:52:16;5.90;;;1.92;;
22922;SDS011;11627;51.322;22.816;2024-02-14T13:54:43;4.50;;;1.80;;
22922;SDS011;11627;51.322;22.816;2024-02-14T13:57:10;7.32;;;2.03;;
22922;SDS011;11627;51.322;22.816;2024-02-14T13:59:38;3.95;;;2.03;;
22922;SDS011;11627;51.322;22.816;2024-02-14T14:02:04;3.88;;;1.80;;
22922;SDS011;11627;51.322;22.816;2024-02-14T14:04:33;5.53;;;1.80;;
22922;SDS011;11627;51.322;22.816;2024-02-14T14:07:01;6.63;;;2.15;;
22922;SDS011;11627;51.322;22.816;2024-02-14T14:09:30;6.28;;;2.47;;
22922;SDS011;11627;51.322;22.816;2024-02-14T14:11:58;11.05;;;2.60;;
22922;SDS011;11627;51.322;22.816;2024-02-14T14:14:25;5.15;;;2.17;;
22922;SDS011;11627;51.322;22.816;2024-02-14T14:16:55;5.80;;;2.03;;
22922;SDS011;11627;51.322;22.816;2024-02-14T14:19:22;6.32;;;1.77;;
22922;SDS011;11627;51.322;22.816;2024-02-14T14:21:47;4.13;;;1.83;;
22922;SDS011;11627;51.322;22.816;2024-02-14T14:24:16;3.30;;;1.58;;
22922;SDS011;11627;51.322;22.816;2024-02-14T14:26:42;4.65;;;1.60;;
22922;SDS011;11627;51.322;22.816;2024-02-14T14:29:10;2.88;;;1.60;;
22922;SDS011;11627;51.322;22.816;2024-02-14T14:31:38;2.72;;;1.58;;
22922;SDS011;11627;51.322;22.816;2024-02-14T14:34:05;3.42;;;1.70;;